createdAt,value
2023-02-11T00:03:30.380Z,103258.31
2023-02-11T00:08:32.765Z,103229.53
2023-02-11T00:13:36.154Z,103249.00
2023-02-11T00:18:38.822Z,103266.41
2023-02-11T00:23:41.534Z,103197.81
2023-02-11T00:28:45.458Z,103249.41
2023-02-11T00:33:48.628Z,103230.63
2023-02-11T00:38:53.895Z,103224.47
2023-02-11T00:43:57.139Z,103232.91
2023-02-11T00:49:00.094Z,103187.25
2023-02-11T00:54:03.369Z,103232.66
2023-02-11T00:59:05.894Z,103192.69
2023-02-11T01:04:08.668Z,103167.00
2023-02-11T01:09:11.606Z,103215.22
2023-02-11T01:14:14.782Z,103190.28
2023-02-11T01:19:17.832Z,103227.81
2023-02-11T01:24:21.640Z,103224.34
2023-02-11T01:29:24.928Z,103238.47
2023-02-11T01:34:30.114Z,103192.59
2023-02-11T01:39:35.189Z,103226.75
2023-02-11T01:44:40.970Z,103228.06
2023-02-11T01:49:48.054Z,103239.25
2023-02-11T01:55:12.928Z,103200.66
2023-02-11T02:00:37.343Z,103195.97
2023-02-11T02:05:45.145Z,103242.16
2023-02-11T02:10:50.360Z,103233.88
2023-02-11T02:15:56.994Z,103225.69
2023-02-11T02:21:25.381Z,103229.81
2023-02-11T02:26:34.145Z,103240.00
2023-02-11T02:31:42.444Z,103240.66
2023-02-11T02:36:56.337Z,103242.03
2023-02-11T02:42:00.170Z,103215.94
2023-02-11T02:47:03.186Z,103187.09
2023-02-11T02:52:29.333Z,103178.34
2023-02-11T02:57:41.330Z,103208.59
2023-02-11T03:03:03.779Z,103179.63
2023-02-11T03:08:13.346Z,103216.16
2023-02-11T03:13:18.279Z,103218.41
2023-02-11T03:18:26.558Z,103207.50
2023-02-11T03:23:36.260Z,103209.13
2023-02-11T03:29:07.915Z,103206.25
2023-02-11T03:34:36.712Z,103182.09
2023-02-11T03:39:45.978Z,103173.25
2023-02-11T03:44:54.595Z,103188.00
2023-02-11T03:49:59.825Z,103183.78
2023-02-11T03:55:10.751Z,103181.97
2023-02-11T04:00:14.331Z,103171.25
2023-02-11T04:05:17.009Z,103181.63
2023-02-11T04:10:20.934Z,103184.56
2023-02-11T04:15:23.791Z,103175.75
2023-02-11T04:20:26.712Z,103185.59
2023-02-11T04:25:29.433Z,103169.34
2023-02-11T04:30:32.353Z,103161.72
2023-02-11T04:35:35.203Z,103155.13
2023-02-11T04:40:38.938Z,103178.19
2023-02-11T04:45:41.600Z,103202.09
2023-02-11T04:50:43.916Z,103139.66
2023-02-11T04:55:51.386Z,103109.38
2023-02-11T05:00:54.564Z,103166.34
2023-02-11T05:05:57.538Z,103153.31
2023-02-11T05:11:02.752Z,103144.06
2023-02-11T05:16:06.551Z,103163.28
2023-02-11T05:21:15.602Z,103171.63
2023-02-11T05:26:20.455Z,103163.63
2023-02-11T05:31:23.194Z,103183.50
2023-02-11T05:36:26.649Z,103201.84
2023-02-11T05:41:30.506Z,103179.03
2023-02-11T05:46:33.440Z,103171.63
2023-02-11T05:51:35.825Z,103158.09
2023-02-11T05:56:39.256Z,103166.13
2023-02-11T06:01:42.875Z,103109.13
2023-02-11T06:06:45.217Z,103173.66
2023-02-11T06:11:48.158Z,103170.22
2023-02-11T06:16:51.103Z,103162.25
2023-02-11T06:21:53.439Z,103159.63
2023-02-11T06:26:56.905Z,103148.63
2023-02-11T06:31:59.355Z,103155.50
2023-02-11T06:37:01.989Z,103150.69
2023-02-11T06:42:06.983Z,103137.22
2023-02-11T06:47:11.359Z,103134.19
2023-02-11T06:52:13.766Z,103113.16
2023-02-11T06:57:17.179Z,103106.53
2023-02-11T07:02:21.105Z,103125.44
2023-02-11T07:07:24.351Z,103132.69
2023-02-11T07:12:27.277Z,103095.66
2023-02-11T07:17:30.291Z,103079.66
2023-02-11T07:22:34.868Z,103102.53
2023-02-11T07:27:37.593Z,103098.50
2023-02-11T07:32:39.901Z,103055.81
2023-02-11T07:37:44.378Z,103080.00
2023-02-11T07:42:46.771Z,103089.72
2023-02-11T07:47:50.125Z,103103.19
2023-02-11T07:52:52.448Z,103090.47
2023-02-11T07:57:55.328Z,103125.44
2023-02-11T08:02:58.579Z,103106.44
2023-02-11T08:08:00.927Z,103091.28
2023-02-11T08:13:03.247Z,103062.16
2023-02-11T08:18:06.973Z,103059.78
2023-02-11T08:23:09.398Z,103078.41
2023-02-11T08:28:12.892Z,103088.44
2023-02-11T08:33:15.304Z,103072.63
2023-02-11T08:38:18.668Z,103045.94
2023-02-11T08:43:21.651Z,103052.47
2023-02-11T08:48:25.570Z,103056.94
2023-02-11T08:53:28.381Z,103002.03
2023-02-11T08:58:31.627Z,102970.72
2023-02-11T09:03:34.412Z,102995.53
2023-02-11T09:08:40.450Z,103004.91
2023-02-11T09:13:44.488Z,103001.78
2023-02-11T09:18:48.032Z,102976.56
2023-02-11T09:23:50.986Z,102964.56
2023-02-11T09:28:54.089Z,102949.13
2023-02-11T09:34:00.584Z,102917.38
2023-02-11T09:39:05.496Z,102926.88
2023-02-11T09:44:18.480Z,102939.19
2023-02-11T09:49:27.312Z,102902.78
2023-02-11T09:54:56.252Z,102935.38
2023-02-11T09:59:58.584Z,102909.97
2023-02-11T10:05:29.384Z,102949.63
2023-02-11T10:10:58.512Z,102922.41
2023-02-11T10:16:14.208Z,102934.25
2023-02-11T10:21:27.048Z,102930.63
2023-02-11T10:26:32.736Z,102931.16
2023-02-11T10:31:42.633Z,102906.69
2023-02-11T10:36:45.813Z,102904.00
2023-02-11T10:42:02.520Z,102865.34
2023-02-11T10:47:28.838Z,102887.25
2023-02-11T10:52:32.617Z,102885.66
2023-02-11T10:57:45.479Z,102869.09
2023-02-11T11:02:56.367Z,102856.78
2023-02-11T11:08:10.133Z,102881.66
2023-02-11T11:13:38.173Z,102876.09
2023-02-11T11:18:44.627Z,102872.59
2023-02-11T11:23:59.376Z,102865.97
2023-02-11T11:29:10.814Z,102871.19
2023-02-11T11:34:34.365Z,102872.31
2023-02-11T11:39:36.905Z,102861.06
2023-02-11T11:44:43.098Z,102865.47
2023-02-11T11:50:04.284Z,102871.84
2023-02-11T11:55:25.544Z,102845.50
2023-02-11T12:00:36.544Z,102866.63
2023-02-11T12:06:03.689Z,102859.16
2023-02-11T12:11:30.500Z,102867.94
2023-02-11T12:17:18.544Z,102863.97
2023-02-11T12:23:00.449Z,102858.50
2023-02-11T12:28:25.983Z,102833.47
2023-02-11T12:33:59.330Z,102841.53
2023-02-11T12:39:17.522Z,102849.97
2023-02-11T12:45:09.452Z,102814.75
2023-02-11T12:50:39.246Z,102834.38
2023-02-11T12:55:46.642Z,102828.44
2023-02-11T13:01:09.943Z,102835.91
2023-02-11T13:06:17.998Z,102835.91
2023-02-11T13:11:26.994Z,102801.06
2023-02-11T13:16:43.240Z,102842.44
2023-02-11T13:22:17.049Z,102831.56
2023-02-11T13:27:44.160Z,102832.94
2023-02-11T13:32:56.624Z,102829.78
2023-02-11T13:38:05.597Z,102826.44
2023-02-11T13:43:22.448Z,102810.00
2023-02-11T13:48:32.759Z,102801.66
2023-02-11T13:53:54.555Z,102782.72
2023-02-11T13:58:59.642Z,102805.56
2023-02-11T14:04:42.530Z,102810.25
2023-02-11T14:09:45.712Z,102806.56
2023-02-11T14:15:07.721Z,102735.44
2023-02-11T14:20:34.928Z,102810.66
2023-02-11T14:25:42.407Z,102770.50
2023-02-11T14:31:11.265Z,102765.00
2023-02-11T14:36:22.883Z,102820.94
2023-02-11T14:41:35.610Z,102801.69
2023-02-11T14:46:38.845Z,102774.25
2023-02-11T14:51:41.839Z,102803.25
2023-02-11T14:57:12.024Z,102774.84
2023-02-11T15:02:22.944Z,102814.44
2023-02-11T15:07:25.863Z,102770.97
2023-02-11T15:12:29.032Z,102794.00
2023-02-11T15:17:32.671Z,102797.31
2023-02-11T15:22:37.162Z,102798.84
2023-02-11T15:27:46.446Z,102783.69
2023-02-11T15:32:51.050Z,102801.22
2023-02-11T15:37:53.566Z,102761.56
2023-02-11T15:43:09.453Z,102761.66
2023-02-11T15:48:17.889Z,102790.63
2023-02-11T15:53:23.408Z,102812.78
2023-02-11T15:58:25.901Z,102790.06
2023-02-11T16:03:33.123Z,102821.28
2023-02-11T16:08:38.449Z,102793.47
2023-02-11T16:13:47.915Z,102786.34
2023-02-11T16:19:04.251Z,102787.69
2023-02-11T16:24:08.605Z,102788.59
2023-02-11T16:29:17.545Z,102794.53
2023-02-11T16:34:24.010Z,102659.31
2023-02-11T16:39:26.338Z,102723.22
2023-02-11T16:44:29.722Z,102757.28
2023-02-11T16:49:37.062Z,102759.28
2023-02-11T16:54:39.306Z,102765.16
2023-02-11T16:59:41.875Z,102753.25
2023-02-11T17:04:44.777Z,102759.38
2023-02-11T17:09:47.566Z,102745.38
2023-02-11T17:14:50.166Z,102758.09
2023-02-11T17:19:52.707Z,102723.97
2023-02-11T17:24:57.338Z,102718.53
2023-02-11T17:29:59.986Z,102718.81
2023-02-11T17:35:02.799Z,102690.78
2023-02-11T17:40:06.772Z,102689.44
2023-02-11T17:45:09.888Z,102713.88
2023-02-11T17:50:12.581Z,102701.41
2023-02-11T17:55:18.165Z,102696.56
2023-02-11T18:00:21.378Z,102671.63
2023-02-11T18:05:26.122Z,102680.41
2023-02-11T18:10:28.843Z,102649.69
2023-02-11T18:15:33.381Z,102660.97
2023-02-11T18:20:35.976Z,102671.19
2023-02-11T18:25:42.139Z,102675.47
2023-02-11T18:30:44.829Z,102664.91
2023-02-11T18:35:49.470Z,102675.69
2023-02-11T18:40:52.678Z,102646.50
2023-02-11T18:45:55.227Z,102621.97
2023-02-11T18:50:58.040Z,102626.31
2023-02-11T18:56:01.513Z,102614.88
2023-02-11T19:01:16.402Z,102633.16
2023-02-11T19:06:25.783Z,102647.44
2023-02-11T19:11:54.355Z,102611.72
2023-02-11T19:16:58.905Z,102624.59
2023-02-11T19:22:02.791Z,102607.78
2023-02-11T19:27:05.878Z,102599.47
2023-02-11T19:32:08.593Z,102553.75
2023-02-11T19:37:14.196Z,102558.81
2023-02-11T19:42:16.874Z,102598.97
2023-02-11T19:47:20.337Z,102581.16
2023-02-11T19:52:23.269Z,102554.56
2023-02-11T19:57:25.531Z,102563.75
2023-02-11T20:02:29.317Z,102584.75
2023-02-11T20:07:31.714Z,102552.13
2023-02-11T20:12:34.663Z,102526.03
2023-02-11T20:17:37.541Z,102562.53
2023-02-11T20:22:40.477Z,102461.66
2023-02-11T20:27:42.974Z,102509.59
2023-02-11T20:32:45.445Z,102514.13
2023-02-11T20:37:48.738Z,102554.94
2023-02-11T20:42:51.811Z,102524.81
2023-02-11T20:47:55.340Z,102550.06
2023-02-11T20:52:57.630Z,102530.94
2023-02-11T20:58:00.545Z,102515.59
2023-02-11T21:03:05.536Z,102528.63
2023-02-11T21:08:07.927Z,102526.78
2023-02-11T21:13:10.291Z,102527.22
2023-02-11T21:18:14.092Z,102519.22
2023-02-11T21:23:17.986Z,102479.22
2023-02-11T21:28:26.746Z,102506.25
2023-02-11T21:33:30.568Z,102503.00
2023-02-11T21:38:35.005Z,102519.56
2023-02-11T21:43:37.428Z,102507.44
2023-02-11T21:48:40.127Z,102501.81
2023-02-11T21:53:43.531Z,102479.44
2023-02-11T21:58:46.590Z,102480.38
2023-02-11T22:03:50.558Z,102442.41
2023-02-11T22:08:55.234Z,102447.97
2023-02-11T22:13:58.102Z,102463.34
2023-02-11T22:19:03.095Z,102455.81
2023-02-11T22:24:07.031Z,102419.69
2023-02-11T22:29:09.589Z,102434.16
2023-02-11T22:34:11.926Z,102389.06
2023-02-11T22:39:18.571Z,102435.22
2023-02-11T22:44:21.768Z,102412.31
2023-02-11T22:49:25.356Z,102407.28
2023-02-11T22:54:27.911Z,102390.81
2023-02-11T22:59:30.301Z,102422.13
2023-02-11T23:04:33.670Z,102377.81
2023-02-11T23:09:36.142Z,102362.53
2023-02-11T23:14:38.925Z,102395.94
2023-02-11T23:19:42.084Z,102387.13
2023-02-11T23:24:44.943Z,102365.75
2023-02-11T23:29:47.908Z,102396.53
2023-02-11T23:34:51.800Z,102381.44
2023-02-11T23:39:54.129Z,102337.28
2023-02-11T23:44:57.563Z,102383.69
2023-02-11T23:50:01.190Z,102370.38
2023-02-11T23:55:06.490Z,102363.09
